sensor_id;sensor_type;location;lat;lon;timestamp;temperature;humidity
66871;DHT22;53780;44.998;9.926;2023-03-01T00:01:40;5.49;66.13
66871;DHT22;53780;44.998;9.926;2023-03-01T00:04:44;5.35;67.55
66871;DHT22;53780;44.998;9.926;2023-03-01T00:07:48;5.22;68.86
66871;DHT22;53780;44.998;9.926;2023-03-01T00:14:14;5.11;70.01
66871;DHT22;53780;44.998;9.926;2023-03-01T00:17:19;5.05;70.82
66871;DHT22;53780;44.998;9.926;2023-03-01T00:20:23;5.04;71.00
66871;DHT22;53780;44.998;9.926;2023-03-01T00:23:27;5.07;70.72
66871;DHT22;53780;44.998;9.926;2023-03-01T00:26:31;5.02;71.07
66871;DHT22;53780;44.998;9.926;2023-03-01T00:29:36;5.08;71.07
66871;DHT22;53780;44.998;9.926;2023-03-01T00:32:39;5.02;71.13
66871;DHT22;53780;44.998;9.926;2023-03-01T00:35:43;4.96;71.83
66871;DHT22;53780;44.998;9.926;2023-03-01T00:38:47;4.98;72.29
66871;DHT22;53780;44.998;9.926;2023-03-01T00:41:51;4.95;72.35
66871;DHT22;53780;44.998;9.926;2023-03-01T00:44:54;4.95;72.47
66871;DHT22;53780;44.998;9.926;2023-03-01T00:47:58;4.96;72.23
66871;DHT22;53780;44.998;9.926;2023-03-01T00:51:10;4.99;71.41
66871;DHT22;53780;44.998;9.926;2023-03-01T00:54:15;4.96;70.34
66871;DHT22;53780;44.998;9.926;2023-03-01T00:57:18;4.80;69.77
66871;DHT22;53780;44.998;9.926;2023-03-01T01:00:22;4.74;70.58
66871;DHT22;53780;44.998;9.926;2023-03-01T01:03:27;4.71;70.74
66871;DHT22;53780;44.998;9.926;2023-03-01T01:06:42;4.68;69.64
66871;DHT22;53780;44.998;9.926;2023-03-01T01:09:46;4.60;69.47
66871;DHT22;53780;44.998;9.926;2023-03-01T01:12:50;4.52;70.48
66871;DHT22;53780;44.998;9.926;2023-03-01T01:15:54;4.46;71.69
66871;DHT22;53780;44.998;9.926;2023-03-01T01:18:59;4.45;72.30
66871;DHT22;53780;44.998;9.926;2023-03-01T01:22:03;4.43;72.16
66871;DHT22;53780;44.998;9.926;2023-03-01T01:25:07;4.39;71.79
66871;DHT22;53780;44.998;9.926;2023-03-01T01:28:11;4.40;71.60
66871;DHT22;53780;44.998;9.926;2023-03-01T01:31:15;4.35;71.21
66871;DHT22;53780;44.998;9.926;2023-03-01T01:34:21;4.36;70.95
66871;DHT22;53780;44.998;9.926;2023-03-01T01:37:25;4.26;70.48
66871;DHT22;53780;44.998;9.926;2023-03-01T01:40:34;4.19;71.60
66871;DHT22;53780;44.998;9.926;2023-03-01T01:43:43;4.10;72.51
66871;DHT22;53780;44.998;9.926;2023-03-01T01:46:52;4.15;73.02
66871;DHT22;53780;44.998;9.926;2023-03-01T01:49:57;4.12;73.92
66871;DHT22;53780;44.998;9.926;2023-03-01T01:53:01;4.12;74.46
66871;DHT22;53780;44.998;9.926;2023-03-01T01:56:08;4.15;74.54
66871;DHT22;53780;44.998;9.926;2023-03-01T01:59:13;4.10;74.54
66871;DHT22;53780;44.998;9.926;2023-03-01T02:02:17;4.08;74.41
66871;DHT22;53780;44.998;9.926;2023-03-01T02:05:33;4.13;74.25
66871;DHT22;53780;44.998;9.926;2023-03-01T02:08:40;4.18;74.06
66871;DHT22;53780;44.998;9.926;2023-03-01T02:11:47;4.22;73.92
66871;DHT22;53780;44.998;9.926;2023-03-01T02:14:52;4.20;73.71
66871;DHT22;53780;44.998;9.926;2023-03-01T02:17:56;4.22;73.53
66871;DHT22;53780;44.998;9.926;2023-03-01T02:21:25;4.25;73.40
66871;DHT22;53780;44.998;9.926;2023-03-01T02:24:43;4.25;73.37
66871;DHT22;53780;44.998;9.926;2023-03-01T02:28:00;4.23;73.38
66871;DHT22;53780;44.998;9.926;2023-03-01T02:31:07;4.29;73.28
66871;DHT22;53780;44.998;9.926;2023-03-01T02:34:31;4.28;72.99
66871;DHT22;53780;44.998;9.926;2023-03-01T02:37:36;4.26;72.77
66871;DHT22;53780;44.998;9.926;2023-03-01T02:40:40;4.30;72.59
66871;DHT22;53780;44.998;9.926;2023-03-01T02:43:44;4.36;72.20
66871;DHT22;53780;44.998;9.926;2023-03-01T02:46:51;4.40;71.89
66871;DHT22;53780;44.998;9.926;2023-03-01T02:49:55;4.45;71.19
66871;DHT22;53780;44.998;9.926;2023-03-01T02:56:21;4.13;69.66
66871;DHT22;53780;44.998;9.926;2023-03-01T02:59:30;3.91;70.29
66871;DHT22;53780;44.998;9.926;2023-03-01T03:02:35;3.88;70.74
66871;DHT22;53780;44.998;9.926;2023-03-01T03:05:51;3.91;70.45
66871;DHT22;53780;44.998;9.926;2023-03-01T03:08:55;3.81;70.82
66871;DHT22;53780;44.998;9.926;2023-03-01T03:11:58;3.87;70.82
66871;DHT22;53780;44.998;9.926;2023-03-01T03:15:04;3.80;71.11
66871;DHT22;53780;44.998;9.926;2023-03-01T03:18:15;3.69;71.40
66871;DHT22;53780;44.998;9.926;2023-03-01T03:21:19;3.59;71.49
66871;DHT22;53780;44.998;9.926;2023-03-01T03:24:23;3.63;71.40
66871;DHT22;53780;44.998;9.926;2023-03-01T03:27:28;3.67;71.39
66871;DHT22;53780;44.998;9.926;2023-03-01T03:30:32;3.59;71.85
66871;DHT22;53780;44.998;9.926;2023-03-01T03:33:36;3.53;72.50
66871;DHT22;53780;44.998;9.926;2023-03-01T03:36:40;3.60;72.46
66871;DHT22;53780;44.998;9.926;2023-03-01T03:39:43;3.66;72.22
66871;DHT22;53780;44.998;9.926;2023-03-01T03:42:47;3.69;72.07
66871;DHT22;53780;44.998;9.926;2023-03-01T03:45:52;3.71;71.93
66871;DHT22;53780;44.998;9.926;2023-03-01T03:48:57;3.67;71.95
66871;DHT22;53780;44.998;9.926;2023-03-01T03:52:01;3.82;71.60
66871;DHT22;53780;44.998;9.926;2023-03-01T03:55:06;3.90;71.28
66871;DHT22;53780;44.998;9.926;2023-03-01T03:58:15;3.98;70.78
66871;DHT22;53780;44.998;9.926;2023-03-01T04:01:20;4.03;70.67
66871;DHT22;53780;44.998;9.926;2023-03-01T04:04:24;4.06;70.30
66871;DHT22;53780;44.998;9.926;2023-03-01T04:07:28;4.06;70.01
66871;DHT22;53780;44.998;9.926;2023-03-01T04:10:45;4.01;70.19
66871;DHT22;53780;44.998;9.926;2023-03-01T04:13:50;3.95;70.07
66871;DHT22;53780;44.998;9.926;2023-03-01T04:16:54;3.97;70.14
66871;DHT22;53780;44.998;9.926;2023-03-01T04:19:58;4.06;69.83
66871;DHT22;53780;44.998;9.926;2023-03-01T04:23:07;4.16;69.62
66871;DHT22;53780;44.998;9.926;2023-03-01T04:26:13;4.20;69.81
66871;DHT22;53780;44.998;9.926;2023-03-01T04:29:17;4.15;68.26
66871;DHT22;53780;44.998;9.926;2023-03-01T04:32:21;3.85;67.30
66871;DHT22;53780;44.998;9.926;2023-03-01T04:35:25;3.74;66.60
66871;DHT22;53780;44.998;9.926;2023-03-01T04:38:29;3.74;66.39
66871;DHT22;53780;44.998;9.926;2023-03-01T04:41:33;3.59;66.80
66871;DHT22;53780;44.998;9.926;2023-03-01T04:44:37;3.59;67.76
66871;DHT22;53780;44.998;9.926;2023-03-01T04:47:42;3.52;68.09
66871;DHT22;53780;44.998;9.926;2023-03-01T04:50:48;3.56;67.84
66871;DHT22;53780;44.998;9.926;2023-03-01T04:53:51;3.56;67.95
66871;DHT22;53780;44.998;9.926;2023-03-01T04:56:55;3.46;68.04
66871;DHT22;53780;44.998;9.926;2023-03-01T04:59:59;3.47;68.40
66871;DHT22;53780;44.998;9.926;2023-03-01T05:03:03;3.49;68.81
66871;DHT22;53780;44.998;9.926;2023-03-01T05:06:07;3.52;68.65
66871;DHT22;53780;44.998;9.926;2023-03-01T05:09:10;3.54;68.95
66871;DHT22;53780;44.998;9.926;2023-03-01T05:12:15;3.57;69.20
66871;DHT22;53780;44.998;9.926;2023-03-01T05:15:19;3.54;69.04
66871;DHT22;53780;44.998;9.926;2023-03-01T05:18:25;3.60;69.17
66871;DHT22;53780;44.998;9.926;2023-03-01T05:21:30;3.59;69.45
66871;DHT22;53780;44.998;9.926;2023-03-01T05:24:34;3.63;69.46
66871;DHT22;53780;44.998;9.926;2023-03-01T05:27:39;3.69;69.23
66871;DHT22;53780;44.998;9.926;2023-03-01T05:30:42;3.70;68.52
66871;DHT22;53780;44.998;9.926;2023-03-01T05:33:46;3.63;68.95
66871;DHT22;53780;44.998;9.926;2023-03-01T05:36:50;3.54;68.89
66871;DHT22;53780;44.998;9.926;2023-03-01T05:39:56;3.52;68.96
66871;DHT22;53780;44.998;9.926;2023-03-01T05:43:00;3.47;69.37
66871;DHT22;53780;44.998;9.926;2023-03-01T05:46:03;3.56;69.15
66871;DHT22;53780;44.998;9.926;2023-03-01T05:49:07;3.64;69.37
66871;DHT22;53780;44.998;9.926;2023-03-01T05:52:11;3.66;69.68
66871;DHT22;53780;44.998;9.926;2023-03-01T05:55:20;3.61;69.90
66871;DHT22;53780;44.998;9.926;2023-03-01T05:58:23;3.67;69.76
66871;DHT22;53780;44.998;9.926;2023-03-01T06:01:28;3.67;69.67
66871;DHT22;53780;44.998;9.926;2023-03-01T06:04:33;3.59;70.22
66871;DHT22;53780;44.998;9.926;2023-03-01T06:07:37;3.64;69.75
66871;DHT22;53780;44.998;9.926;2023-03-01T06:10:41;3.67;69.07
66871;DHT22;53780;44.998;9.926;2023-03-01T06:13:45;3.71;68.88
66871;DHT22;53780;44.998;9.926;2023-03-01T06:16:49;3.78;69.47
66871;DHT22;53780;44.998;9.926;2023-03-01T06:19:53;3.64;69.65
66871;DHT22;53780;44.998;9.926;2023-03-01T06:22:57;3.73;69.81
66871;DHT22;53780;44.998;9.926;2023-03-01T06:26:07;3.75;70.78
66871;DHT22;53780;44.998;9.926;2023-03-01T06:29:11;3.87;70.64
66871;DHT22;53780;44.998;9.926;2023-03-01T06:32:16;3.97;70.18
66871;DHT22;53780;44.998;9.926;2023-03-01T06:35:20;4.05;70.28
66871;DHT22;53780;44.998;9.926;2023-03-01T06:38:24;4.13;70.49
66871;DHT22;53780;44.998;9.926;2023-03-01T06:41:29;4.18;70.35
66871;DHT22;53780;44.998;9.926;2023-03-01T06:44:33;4.26;70.24
66871;DHT22;53780;44.998;9.926;2023-03-01T06:47:37;4.42;69.57
66871;DHT22;53780;44.998;9.926;2023-03-01T06:50:41;4.46;69.76
66871;DHT22;53780;44.998;9.926;2023-03-01T06:53:46;4.49;70.09
66871;DHT22;53780;44.998;9.926;2023-03-01T06:56:50;4.66;69.43
66871;DHT22;53780;44.998;9.926;2023-03-01T06:59:54;4.80;69.21
66871;DHT22;53780;44.998;9.926;2023-03-01T07:03:00;4.87;69.88
66871;DHT22;53780;44.998;9.926;2023-03-01T07:06:05;5.04;69.58
66871;DHT22;53780;44.998;9.926;2023-03-01T07:09:09;5.18;69.30
66871;DHT22;53780;44.998;9.926;2023-03-01T07:12:13;5.22;69.90
66871;DHT22;53780;44.998;9.926;2023-03-01T07:15:16;5.26;70.63
66871;DHT22;53780;44.998;9.926;2023-03-01T07:18:20;5.33;71.17
66871;DHT22;53780;44.998;9.926;2023-03-01T07:21:24;5.43;70.77
66871;DHT22;53780;44.998;9.926;2023-03-01T07:24:32;5.56;70.61
66871;DHT22;53780;44.998;9.926;2023-03-01T07:27:39;5.98;70.42
66871;DHT22;53780;44.998;9.926;2023-03-01T07:30:43;6.04;69.54
66871;DHT22;53780;44.998;9.926;2023-03-01T07:33:47;6.49;68.83
66871;DHT22;53780;44.998;9.926;2023-03-01T07:36:51;6.53;68.53
66871;DHT22;53780;44.998;9.926;2023-03-01T07:39:54;7.08;67.26
66871;DHT22;53780;44.998;9.926;2023-03-01T07:42:58;7.25;67.17
66871;DHT22;53780;44.998;9.926;2023-03-01T07:46:03;7.55;65.36
66871;DHT22;53780;44.998;9.926;2023-03-01T07:49:07;7.74;64.45
66871;DHT22;53780;44.998;9.926;2023-03-01T07:52:11;7.99;64.14
66871;DHT22;53780;44.998;9.926;2023-03-01T07:55:16;7.97;63.72
66871;DHT22;53780;44.998;9.926;2023-03-01T07:58:20;8.04;63.50
66871;DHT22;53780;44.998;9.926;2023-03-01T08:01:24;8.08;63.82
66871;DHT22;53780;44.998;9.926;2023-03-01T08:04:27;8.08;63.37
66871;DHT22;53780;44.998;9.926;2023-03-01T08:07:33;8.12;63.43
66871;DHT22;53780;44.998;9.926;2023-03-01T08:10:36;8.01;63.92
66871;DHT22;53780;44.998;9.926;2023-03-01T08:13:40;8.01;64.67
66871;DHT22;53780;44.998;9.926;2023-03-01T08:16:44;8.06;64.35
66871;DHT22;53780;44.998;9.926;2023-03-01T08:19:48;7.98;63.80
66871;DHT22;53780;44.998;9.926;2023-03-01T08:22:52;8.04;62.08
66871;DHT22;53780;44.998;9.926;2023-03-01T08:26:10;8.15;61.76
66871;DHT22;53780;44.998;9.926;2023-03-01T08:29:15;8.24;61.56
66871;DHT22;53780;44.998;9.926;2023-03-01T08:32:19;8.32;61.40
66871;DHT22;53780;44.998;9.926;2023-03-01T08:35:23;8.36;62.66
66871;DHT22;53780;44.998;9.926;2023-03-01T08:38:27;8.29;62.76
66871;DHT22;53780;44.998;9.926;2023-03-01T08:41:31;8.42;62.01
66871;DHT22;53780;44.998;9.926;2023-03-01T08:44:35;8.05;62.82
66871;DHT22;53780;44.998;9.926;2023-03-01T08:47:39;8.06;63.43
66871;DHT22;53780;44.998;9.926;2023-03-01T08:50:43;8.06;63.59
66871;DHT22;53780;44.998;9.926;2023-03-01T08:53:48;8.36;63.21
66871;DHT22;53780;44.998;9.926;2023-03-01T08:56:52;8.48;62.93
66871;DHT22;53780;44.998;9.926;2023-03-01T08:59:56;8.76;61.91
66871;DHT22;53780;44.998;9.926;2023-03-01T09:03:00;9.18;60.07
66871;DHT22;53780;44.998;9.926;2023-03-01T09:06:05;9.39;59.68
66871;DHT22;53780;44.998;9.926;2023-03-01T09:09:16;9.64;59.34
66871;DHT22;53780;44.998;9.926;2023-03-01T09:12:21;9.89;58.05
66871;DHT22;53780;44.998;9.926;2023-03-01T09:15:25;10.11;57.59
66871;DHT22;53780;44.998;9.926;2023-03-01T09:18:29;10.24;56.40
66871;DHT22;53780;44.998;9.926;2023-03-01T09:21:33;10.56;55.25
66871;DHT22;53780;44.998;9.926;2023-03-01T09:24:37;10.73;54.75
66871;DHT22;53780;44.998;9.926;2023-03-01T09:27:41;10.57;54.58
66871;DHT22;53780;44.998;9.926;2023-03-01T09:30:45;10.17;55.44
66871;DHT22;53780;44.998;9.926;2023-03-01T09:33:51;9.66;58.20
66871;DHT22;53780;44.998;9.926;2023-03-01T09:36:57;9.52;59.29
66871;DHT22;53780;44.998;9.926;2023-03-01T09:40:03;9.28;60.92
66871;DHT22;53780;44.998;9.926;2023-03-01T09:43:15;9.42;59.92
66871;DHT22;53780;44.998;9.926;2023-03-01T09:46:24;9.43;59.89
66871;DHT22;53780;44.998;9.926;2023-03-01T09:49:33;9.76;59.30
66871;DHT22;53780;44.998;9.926;2023-03-01T10:03:27;10.67;54.65
66871;DHT22;53780;44.998;9.926;2023-03-01T10:06:31;10.41;55.87
66871;DHT22;53780;44.998;9.926;2023-03-01T10:09:37;10.41;54.24
66871;DHT22;53780;44.998;9.926;2023-03-01T10:12:43;10.67;54.50
66871;DHT22;53780;44.998;9.926;2023-03-01T10:15:50;10.92;54.99
66871;DHT22;53780;44.998;9.926;2023-03-01T10:19:00;10.84;52.86
66871;DHT22;53780;44.998;9.926;2023-03-01T10:22:20;10.52;55.10
66871;DHT22;53780;44.998;9.926;2023-03-01T10:32:06;10.65;55.36
66871;DHT22;53780;44.998;9.926;2023-03-01T10:35:25;10.69;54.35
66871;DHT22;53780;44.998;9.926;2023-03-01T10:38:46;10.65;54.29
66871;DHT22;53780;44.998;9.926;2023-03-01T10:42:02;11.00;53.88
66871;DHT22;53780;44.998;9.926;2023-03-01T10:49:18;11.31;54.21
66871;DHT22;53780;44.998;9.926;2023-03-01T10:52:25;11.52;51.58
66871;DHT22;53780;44.998;9.926;2023-03-01T10:55:38;11.66;51.15
66871;DHT22;53780;44.998;9.926;2023-03-01T11:02:16;12.13;49.63
66871;DHT22;53780;44.998;9.926;2023-03-01T11:05:24;11.77;50.84
66871;DHT22;53780;44.998;9.926;2023-03-01T11:08:40;11.63;50.78
66871;DHT22;53780;44.998;9.926;2023-03-01T11:11:45;11.30;51.62
66871;DHT22;53780;44.998;9.926;2023-03-01T11:14:53;11.20;52.86
66871;DHT22;53780;44.998;9.926;2023-03-01T11:17:57;11.14;53.31
66871;DHT22;53780;44.998;9.926;2023-03-01T11:21:02;11.18;53.46
66871;DHT22;53780;44.998;9.926;2023-03-01T11:24:12;11.04;52.71
66871;DHT22;53780;44.998;9.926;2023-03-01T11:27:24;10.97;53.30
66871;DHT22;53780;44.998;9.926;2023-03-01T11:34:05;10.96;53.74
66871;DHT22;53780;44.998;9.926;2023-03-01T11:37:37;11.17;54.01
66871;DHT22;53780;44.998;9.926;2023-03-01T11:44:12;11.54;52.87
66871;DHT22;53780;44.998;9.926;2023-03-01T11:47:32;11.35;53.15
66871;DHT22;53780;44.998;9.926;2023-03-01T11:50:47;11.43;52.13
66871;DHT22;53780;44.998;9.926;2023-03-01T11:57:52;11.55;52.68
66871;DHT22;53780;44.998;9.926;2023-03-01T12:01:01;11.42;52.24
66871;DHT22;53780;44.998;9.926;2023-03-01T12:21:39;10.79;54.39
66871;DHT22;53780;44.998;9.926;2023-03-01T12:25:12;10.65;54.44
66871;DHT22;53780;44.998;9.926;2023-03-01T12:36:09;10.39;56.76
66871;DHT22;53780;44.998;9.926;2023-03-01T12:49:56;10.44;56.27
66871;DHT22;53780;44.998;9.926;2023-03-01T12:53:01;10.52;55.19
66871;DHT22;53780;44.998;9.926;2023-03-01T12:56:10;10.55;52.68
66871;DHT22;53780;44.998;9.926;2023-03-01T12:59:57;10.41;57.37
66871;DHT22;53780;44.998;9.926;2023-03-01T13:03:18;10.32;58.86
66871;DHT22;53780;44.998;9.926;2023-03-01T13:13:28;10.01;57.90
66871;DHT22;53780;44.998;9.926;2023-03-01T13:19:36;9.67;59.97
66871;DHT22;53780;44.998;9.926;2023-03-01T13:22:39;9.45;60.54
66871;DHT22;53780;44.998;9.926;2023-03-01T13:29:25;9.45;63.49
66871;DHT22;53780;44.998;9.926;2023-03-01T13:32:32;9.05;62.66
66871;DHT22;53780;44.998;9.926;2023-03-01T13:35:44;8.85;64.67
66871;DHT22;53780;44.998;9.926;2023-03-01T13:42:02;9.15;64.48
66871;DHT22;53780;44.998;9.926;2023-03-01T13:48:26;9.22;66.15
66871;DHT22;53780;44.998;9.926;2023-03-01T13:51:30;9.25;66.19
66871;DHT22;53780;44.998;9.926;2023-03-01T13:54:34;9.31;66.37
66871;DHT22;53780;44.998;9.926;2023-03-01T13:57:39;9.22;67.74
66871;DHT22;53780;44.998;9.926;2023-03-01T14:00:45;9.18;68.49
66871;DHT22;53780;44.998;9.926;2023-03-01T14:03:49;9.04;69.66
66871;DHT22;53780;44.998;9.926;2023-03-01T14:07:27;8.81;70.59
66871;DHT22;53780;44.998;9.926;2023-03-01T14:10:48;8.80;70.65
66871;DHT22;53780;44.998;9.926;2023-03-01T14:20:31;8.83;72.12
66871;DHT22;53780;44.998;9.926;2023-03-01T14:23:38;8.70;72.05
66871;DHT22;53780;44.998;9.926;2023-03-01T14:26:43;8.42;74.04
66871;DHT22;53780;44.998;9.926;2023-03-01T14:29:59;8.35;73.89
66871;DHT22;53780;44.998;9.926;2023-03-01T14:33:05;8.32;73.82
66871;DHT22;53780;44.998;9.926;2023-03-01T14:36:12;8.32;73.05
66871;DHT22;53780;44.998;9.926;2023-03-01T14:39:25;8.33;73.24
66871;DHT22;53780;44.998;9.926;2023-03-01T14:42:34;8.60;72.72
66871;DHT22;53780;44.998;9.926;2023-03-01T14:45:39;8.83;73.24
66871;DHT22;53780;44.998;9.926;2023-03-01T14:48:43;8.85;72.57
66871;DHT22;53780;44.998;9.926;2023-03-01T14:52:06;9.00;71.54
66871;DHT22;53780;44.998;9.926;2023-03-01T14:55:31;8.94;71.82
66871;DHT22;53780;44.998;9.926;2023-03-01T14:58:36;9.00;72.13
66871;DHT22;53780;44.998;9.926;2023-03-01T15:01:41;9.08;70.97
66871;DHT22;53780;44.998;9.926;2023-03-01T15:04:55;9.15;70.22
66871;DHT22;53780;44.998;9.926;2023-03-01T15:08:06;9.05;70.54
66871;DHT22;53780;44.998;9.926;2023-03-01T15:14:40;8.70;71.69
66871;DHT22;53780;44.998;9.926;2023-03-01T15:17:44;8.32;72.78
66871;DHT22;53780;44.998;9.926;2023-03-01T15:20:53;8.20;73.77
66871;DHT22;53780;44.998;9.926;2023-03-01T15:24:16;8.05;74.09
66871;DHT22;53780;44.998;9.926;2023-03-01T15:27:25;8.01;75.02
66871;DHT22;53780;44.998;9.926;2023-03-01T15:30:32;8.01;74.29
66871;DHT22;53780;44.998;9.926;2023-03-01T15:33:41;7.85;74.22
66871;DHT22;53780;44.998;9.926;2023-03-01T15:36:53;7.74;76.01
66871;DHT22;53780;44.998;9.926;2023-03-01T15:39:57;7.60;75.53
66871;DHT22;53780;44.998;9.926;2023-03-01T15:43:04;7.59;75.33
66871;DHT22;53780;44.998;9.926;2023-03-01T15:46:17;7.46;75.69
66871;DHT22;53780;44.998;9.926;2023-03-01T15:49:41;6.97;78.25
66871;DHT22;53780;44.998;9.926;2023-03-01T15:52:46;6.29;79.40
66871;DHT22;53780;44.998;9.926;2023-03-01T15:55:50;6.60;79.07
66871;DHT22;53780;44.998;9.926;2023-03-01T15:59:01;6.79;77.96
66871;DHT22;53780;44.998;9.926;2023-03-01T16:02:10;6.85;76.18
66871;DHT22;53780;44.998;9.926;2023-03-01T16:05:26;7.01;76.09
66871;DHT22;53780;44.998;9.926;2023-03-01T16:08:29;6.97;74.93
66871;DHT22;53780;44.998;9.926;2023-03-01T16:11:35;6.94;75.84
66871;DHT22;53780;44.998;9.926;2023-03-01T16:14:40;7.02;77.34
66871;DHT22;53780;44.998;9.926;2023-03-01T16:17:44;6.91;76.79
66871;DHT22;53780;44.998;9.926;2023-03-01T16:20:55;6.91;76.39
66871;DHT22;53780;44.998;9.926;2023-03-01T16:23:58;6.90;77.33
66871;DHT22;53780;44.998;9.926;2023-03-01T16:27:02;6.57;77.48
66871;DHT22;53780;44.998;9.926;2023-03-01T16:30:07;6.52;79.07
66871;DHT22;53780;44.998;9.926;2023-03-01T16:33:11;6.24;79.45
66871;DHT22;53780;44.998;9.926;2023-03-01T16:36:17;6.35;79.13
66871;DHT22;53780;44.998;9.926;2023-03-01T16:39:22;5.98;80.37
66871;DHT22;53780;44.998;9.926;2023-03-01T16:42:26;6.08;80.67
66871;DHT22;53780;44.998;9.926;2023-03-01T16:45:35;6.18;80.26
66871;DHT22;53780;44.998;9.926;2023-03-01T16:48:39;6.32;79.76
66871;DHT22;53780;44.998;9.926;2023-03-01T16:51:43;6.12;79.89
66871;DHT22;53780;44.998;9.926;2023-03-01T16:54:47;6.26;78.39
66871;DHT22;53780;44.998;9.926;2023-03-01T16:57:52;6.14;79.96
66871;DHT22;53780;44.998;9.926;2023-03-01T17:00:56;6.12;80.46
66871;DHT22;53780;44.998;9.926;2023-03-01T17:04:00;6.11;80.40
66871;DHT22;53780;44.998;9.926;2023-03-01T17:07:04;6.12;80.30
66871;DHT22;53780;44.998;9.926;2023-03-01T17:10:10;6.14;80.61
66871;DHT22;53780;44.998;9.926;2023-03-01T17:13:14;6.15;80.25
66871;DHT22;53780;44.998;9.926;2023-03-01T17:16:19;6.12;80.36
66871;DHT22;53780;44.998;9.926;2023-03-01T17:19:23;6.21;80.35
66871;DHT22;53780;44.998;9.926;2023-03-01T17:22:27;6.28;79.98
66871;DHT22;53780;44.998;9.926;2023-03-01T17:25:31;6.26;78.73
66871;DHT22;53780;44.998;9.926;2023-03-01T17:28:36;6.16;79.47
66871;DHT22;53780;44.998;9.926;2023-03-01T17:31:40;6.24;79.45
66871;DHT22;53780;44.998;9.926;2023-03-01T17:34:44;6.25;78.91
66871;DHT22;53780;44.998;9.926;2023-03-01T17:37:48;6.21;79.96
66871;DHT22;53780;44.998;9.926;2023-03-01T17:40:52;6.18;80.11
66871;DHT22;53780;44.998;9.926;2023-03-01T17:43:57;6.26;79.97
66871;DHT22;53780;44.998;9.926;2023-03-01T17:47:01;6.25;78.22
66871;DHT22;53780;44.998;9.926;2023-03-01T17:50:06;6.21;78.61
66871;DHT22;53780;44.998;9.926;2023-03-01T17:53:11;6.26;78.53
66871;DHT22;53780;44.998;9.926;2023-03-01T17:56:15;6.24;77.90
66871;DHT22;53780;44.998;9.926;2023-03-01T17:59:19;6.08;77.64
66871;DHT22;53780;44.998;9.926;2023-03-01T18:02:24;5.87;78.77
66871;DHT22;53780;44.998;9.926;2023-03-01T18:05:34;5.78;79.38
66871;DHT22;53780;44.998;9.926;2023-03-01T18:08:38;5.63;81.08
66871;DHT22;53780;44.998;9.926;2023-03-01T18:11:42;5.47;82.41
66871;DHT22;53780;44.998;9.926;2023-03-01T18:14:48;5.28;81.88
66871;DHT22;53780;44.998;9.926;2023-03-01T18:17:56;5.25;82.04
66871;DHT22;53780;44.998;9.926;2023-03-01T18:21:00;5.32;81.97
66871;DHT22;53780;44.998;9.926;2023-03-01T18:24:05;5.43;81.81
66871;DHT22;53780;44.998;9.926;2023-03-01T18:27:09;5.28;82.32
66871;DHT22;53780;44.998;9.926;2023-03-01T18:30:13;5.43;82.23
66871;DHT22;53780;44.998;9.926;2023-03-01T18:33:17;5.36;82.13
66871;DHT22;53780;44.998;9.926;2023-03-01T18:36:24;5.01;83.45
66871;DHT22;53780;44.998;9.926;2023-03-01T18:39:28;5.05;83.01
66871;DHT22;53780;44.998;9.926;2023-03-01T18:42:32;4.99;84.39
66871;DHT22;53780;44.998;9.926;2023-03-01T18:45:37;5.22;84.07
66871;DHT22;53780;44.998;9.926;2023-03-01T18:48:41;5.40;82.69
66871;DHT22;53780;44.998;9.926;2023-03-01T18:51:45;5.53;81.33
66871;DHT22;53780;44.998;9.926;2023-03-01T18:54:49;5.63;81.21
66871;DHT22;53780;44.998;9.926;2023-03-01T18:57:53;5.66;81.08
66871;DHT22;53780;44.998;9.926;2023-03-01T19:00:57;5.74;80.59
66871;DHT22;53780;44.998;9.926;2023-03-01T19:04:02;5.75;79.57
66871;DHT22;53780;44.998;9.926;2023-03-01T19:07:06;5.84;78.66
66871;DHT22;53780;44.998;9.926;2023-03-01T19:10:11;5.87;78.34
66871;DHT22;53780;44.998;9.926;2023-03-01T19:13:16;5.75;78.34
66871;DHT22;53780;44.998;9.926;2023-03-01T19:16:22;5.70;78.18
66871;DHT22;53780;44.998;9.926;2023-03-01T19:19:26;5.59;78.24
66871;DHT22;53780;44.998;9.926;2023-03-01T19:22:31;5.59;77.94
66871;DHT22;53780;44.998;9.926;2023-03-01T19:25:35;5.64;78.12
66871;DHT22;53780;44.998;9.926;2023-03-01T19:28:40;5.70;77.62
66871;DHT22;53780;44.998;9.926;2023-03-01T19:31:43;5.56;77.58
66871;DHT22;53780;44.998;9.926;2023-03-01T19:34:47;5.46;77.62
66871;DHT22;53780;44.998;9.926;2023-03-01T19:37:52;5.43;77.66
66871;DHT22;53780;44.998;9.926;2023-03-01T19:40:56;5.42;78.04
66871;DHT22;53780;44.998;9.926;2023-03-01T19:44:00;5.60;78.20
66871;DHT22;53780;44.998;9.926;2023-03-01T19:47:08;5.70;78.73
66871;DHT22;53780;44.998;9.926;2023-03-01T19:50:12;5.71;78.38
66871;DHT22;53780;44.998;9.926;2023-03-01T19:53:16;5.73;78.42
66871;DHT22;53780;44.998;9.926;2023-03-01T19:56:20;5.74;78.22
66871;DHT22;53780;44.998;9.926;2023-03-01T19:59:24;5.74;78.06
66871;DHT22;53780;44.998;9.926;2023-03-01T20:02:30;5.83;77.25
66871;DHT22;53780;44.998;9.926;2023-03-01T20:05:35;5.83;78.02
66871;DHT22;53780;44.998;9.926;2023-03-01T20:08:40;5.87;78.41
66871;DHT22;53780;44.998;9.926;2023-03-01T20:11:43;5.84;78.57
66871;DHT22;53780;44.998;9.926;2023-03-01T20:14:47;5.87;78.70
66871;DHT22;53780;44.998;9.926;2023-03-01T20:17:53;6.01;78.85
66871;DHT22;53780;44.998;9.926;2023-03-01T20:20:57;6.01;78.53
66871;DHT22;53780;44.998;9.926;2023-03-01T20:24:02;6.04;78.45
66871;DHT22;53780;44.998;9.926;2023-03-01T20:27:06;6.04;78.35
66871;DHT22;53780;44.998;9.926;2023-03-01T20:30:11;6.01;78.13
66871;DHT22;53780;44.998;9.926;2023-03-01T20:33:15;6.02;78.27
66871;DHT22;53780;44.998;9.926;2023-03-01T20:36:19;6.07;78.28
66871;DHT22;53780;44.998;9.926;2023-03-01T20:39:23;6.05;78.14
66871;DHT22;53780;44.998;9.926;2023-03-01T20:42:27;6.05;78.41
66871;DHT22;53780;44.998;9.926;2023-03-01T20:45:31;6.04;78.60
66871;DHT22;53780;44.998;9.926;2023-03-01T20:48:35;5.99;78.30
66871;DHT22;53780;44.998;9.926;2023-03-01T20:51:39;6.01;78.30
66871;DHT22;53780;44.998;9.926;2023-03-01T20:54:43;6.02;78.93
66871;DHT22;53780;44.998;9.926;2023-03-01T20:57:46;6.01;78.97
66871;DHT22;53780;44.998;9.926;2023-03-01T21:00:50;6.04;78.84
66871;DHT22;53780;44.998;9.926;2023-03-01T21:03:55;6.02;78.93
66871;DHT22;53780;44.998;9.926;2023-03-01T21:06:59;6.01;78.89
66871;DHT22;53780;44.998;9.926;2023-03-01T21:10:03;6.04;78.91
66871;DHT22;53780;44.998;9.926;2023-03-01T21:13:08;6.02;79.13
66871;DHT22;53780;44.998;9.926;2023-03-01T21:16:13;6.01;78.89
66871;DHT22;53780;44.998;9.926;2023-03-01T21:19:17;5.98;79.21
66871;DHT22;53780;44.998;9.926;2023-03-01T21:22:22;5.93;79.80
66871;DHT22;53780;44.998;9.926;2023-03-01T21:25:26;5.91;80.46
66871;DHT22;53780;44.998;9.926;2023-03-01T21:28:38;5.88;79.90
66871;DHT22;53780;44.998;9.926;2023-03-01T21:31:43;5.88;79.82
66871;DHT22;53780;44.998;9.926;2023-03-01T21:34:47;5.83;80.53
66871;DHT22;53780;44.998;9.926;2023-03-01T21:37:52;5.86;80.83
66871;DHT22;53780;44.998;9.926;2023-03-01T21:40:56;5.87;80.55
66871;DHT22;53780;44.998;9.926;2023-03-01T21:44:02;5.87;81.20